sensor_id;sensor_type;location;lat;lon;timestamp;P1;durP1;ratioP1;P2;durP2;ratioP2
49890;SDS011;35780;55.568;37.492;2023-07-08T00:00:23;18.77;;;16.58;;
49890;SDS011;35780;55.568;37.492;2023-07-08T00:02:49;22.70;;;16.25;;
49890;SDS011;35780;55.568;37.492;2023-07-08T00:05:16;19.95;;;16.40;;
49890;SDS011;35780;55.568;37.492;2023-07-08T00:07:43;20.40;;;16.25;;
49890;SDS011;35780;55.568;37.492;2023-07-08T00:10:19;23.08;;;16.55;;
49890;SDS011;35780;55.568;37.492;2023-07-08T00:12:47;19.05;;;16.65;;
49890;SDS011;35780;55.568;37.492;2023-07-08T00:15:14;19.55;;;17.50;;
49890;SDS011;35780;55.568;37.492;2023-07-08T00:17:39;18.98;;;16.10;;
49890;SDS011;35780;55.568;37.492;2023-07-08T00:20:19;20.73;;;17.30;;
49890;SDS011;35780;55.568;37.492;2023-07-08T00:22:46;20.85;;;17.00;;
49890;SDS011;35780;55.568;37.492;2023-07-08T00:25:15;19.83;;;17.25;;
49890;SDS011;35780;55.568;37.492;2023-07-08T00:27:47;23.05;;;18.08;;
49890;SDS011;35780;55.568;37.492;2023-07-08T00:30:29;22.27;;;16.88;;
49890;SDS011;35780;55.568;37.492;2023-07-08T00:32:56;19.52;;;16.83;;
49890;SDS011;35780;55.568;37.492;2023-07-08T00:38:00;23.00;;;17.75;;
49890;SDS011;35780;55.568;37.492;2023-07-08T00:40:28;19.83;;;17.50;;
49890;SDS011;35780;55.568;37.492;2023-07-08T00:42:55;18.73;;;16.40;;
49890;SDS011;35780;55.568;37.492;2023-07-08T00:50:47;22.08;;;16.55;;
49890;SDS011;35780;55.568;37.492;2023-07-08T00:55:48;21.20;;;17.48;;
49890;SDS011;35780;55.568;37.492;2023-07-08T00:58:16;25.05;;;18.48;;
49890;SDS011;35780;55.568;37.492;2023-07-08T01:00:42;21.85;;;18.00;;
49890;SDS011;35780;55.568;37.492;2023-07-08T01:03:08;23.38;;;18.15;;
49890;SDS011;35780;55.568;37.492;2023-07-08T01:05:33;26.00;;;18.55;;
49890;SDS011;35780;55.568;37.492;2023-07-08T01:08:01;22.15;;;17.63;;
49890;SDS011;35780;55.568;37.492;2023-07-08T01:10:31;23.30;;;17.20;;
49890;SDS011;35780;55.568;37.492;2023-07-08T01:12:59;24.75;;;18.73;;
49890;SDS011;35780;55.568;37.492;2023-07-08T01:15:27;25.30;;;17.60;;
49890;SDS011;35780;55.568;37.492;2023-07-08T01:17:56;24.52;;;17.50;;
49890;SDS011;35780;55.568;37.492;2023-07-08T01:20:22;19.17;;;16.98;;
49890;SDS011;35780;55.568;37.492;2023-07-08T01:22:47;22.67;;;16.80;;
49890;SDS011;35780;55.568;37.492;2023-07-08T01:25:14;18.08;;;16.15;;
49890;SDS011;35780;55.568;37.492;2023-07-08T01:27:40;23.17;;;17.48;;
49890;SDS011;35780;55.568;37.492;2023-07-08T01:30:09;25.08;;;17.65;;
49890;SDS011;35780;55.568;37.492;2023-07-08T01:32:39;21.45;;;16.23;;
49890;SDS011;35780;55.568;37.492;2023-07-08T01:35:08;21.58;;;15.75;;
49890;SDS011;35780;55.568;37.492;2023-07-08T01:37:36;18.70;;;15.75;;
49890;SDS011;35780;55.568;37.492;2023-07-08T01:42:45;23.23;;;15.95;;
49890;SDS011;35780;55.568;37.492;2023-07-08T01:45:12;21.42;;;15.50;;
49890;SDS011;35780;55.568;37.492;2023-07-08T01:47:39;23.85;;;16.98;;
49890;SDS011;35780;55.568;37.492;2023-07-08T01:50:06;19.88;;;15.40;;
49890;SDS011;35780;55.568;37.492;2023-07-08T01:52:33;21.83;;;16.13;;
49890;SDS011;35780;55.568;37.492;2023-07-08T01:54:58;17.67;;;15.02;;
49890;SDS011;35780;55.568;37.492;2023-07-08T01:57:23;19.92;;;15.98;;
49890;SDS011;35780;55.568;37.492;2023-07-08T01:59:49;17.25;;;13.88;;
49890;SDS011;35780;55.568;37.492;2023-07-08T02:02:15;21.67;;;14.98;;
49890;SDS011;35780;55.568;37.492;2023-07-08T02:04:41;20.15;;;15.38;;
49890;SDS011;35780;55.568;37.492;2023-07-08T02:07:06;22.65;;;15.60;;
49890;SDS011;35780;55.568;37.492;2023-07-08T02:09:31;19.52;;;15.32;;
49890;SDS011;35780;55.568;37.492;2023-07-08T02:11:57;18.50;;;14.88;;
49890;SDS011;35780;55.568;37.492;2023-07-08T02:14:22;18.45;;;14.57;;
49890;SDS011;35780;55.568;37.492;2023-07-08T02:16:48;16.63;;;14.35;;
49890;SDS011;35780;55.568;37.492;2023-07-08T02:19:14;24.40;;;15.65;;
49890;SDS011;35780;55.568;37.492;2023-07-08T02:21:39;18.85;;;16.33;;
49890;SDS011;35780;55.568;37.492;2023-07-08T02:24:05;24.38;;;16.77;;
49890;SDS011;35780;55.568;37.492;2023-07-08T02:26:31;18.55;;;15.80;;
49890;SDS011;35780;55.568;37.492;2023-07-08T02:28:57;21.98;;;16.52;;
49890;SDS011;35780;55.568;37.492;2023-07-08T02:31:23;23.10;;;17.55;;
49890;SDS011;35780;55.568;37.492;2023-07-08T02:33:50;20.77;;;17.17;;
49890;SDS011;35780;55.568;37.492;2023-07-08T02:36:16;24.38;;;17.63;;
49890;SDS011;35780;55.568;37.492;2023-07-08T02:38:41;21.08;;;17.15;;
49890;SDS011;35780;55.568;37.492;2023-07-08T02:41:07;22.65;;;17.55;;
49890;SDS011;35780;55.568;37.492;2023-07-08T02:43:32;22.13;;;18.10;;
49890;SDS011;35780;55.568;37.492;2023-07-08T02:45:58;21.25;;;17.75;;
49890;SDS011;35780;55.568;37.492;2023-07-08T02:48:23;24.88;;;16.80;;
49890;SDS011;35780;55.568;37.492;2023-07-08T02:50:49;21.67;;;17.58;;
49890;SDS011;35780;55.568;37.492;2023-07-08T02:53:14;21.63;;;17.90;;
49890;SDS011;35780;55.568;37.492;2023-07-08T02:55:40;22.67;;;17.92;;
49890;SDS011;35780;55.568;37.492;2023-07-08T02:58:08;20.75;;;17.17;;
49890;SDS011;35780;55.568;37.492;2023-07-08T03:00:34;20.77;;;17.38;;
49890;SDS011;35780;55.568;37.492;2023-07-08T03:03:02;23.08;;;17.92;;
49890;SDS011;35780;55.568;37.492;2023-07-08T03:05:28;22.35;;;16.83;;
49890;SDS011;35780;55.568;37.492;2023-07-08T03:07:54;22.55;;;17.70;;
49890;SDS011;35780;55.568;37.492;2023-07-08T03:10:19;24.40;;;17.60;;
49890;SDS011;35780;55.568;37.492;2023-07-08T03:12:45;28.40;;;18.52;;
49890;SDS011;35780;55.568;37.492;2023-07-08T03:15:10;26.67;;;19.23;;
49890;SDS011;35780;55.568;37.492;2023-07-08T03:17:36;21.70;;;16.58;;
49890;SDS011;35780;55.568;37.492;2023-07-08T03:20:01;22.70;;;17.20;;
49890;SDS011;35780;55.568;37.492;2023-07-08T03:22:28;23.48;;;17.30;;
49890;SDS011;35780;55.568;37.492;2023-07-08T03:24:54;18.65;;;16.75;;
49890;SDS011;35780;55.568;37.492;2023-07-08T03:27:20;20.13;;;17.30;;
49890;SDS011;35780;55.568;37.492;2023-07-08T03:29:49;23.15;;;17.30;;
49890;SDS011;35780;55.568;37.492;2023-07-08T03:32:14;22.73;;;17.98;;
49890;SDS011;35780;55.568;37.492;2023-07-08T03:34:40;26.42;;;19.25;;
49890;SDS011;35780;55.568;37.492;2023-07-08T03:37:05;25.08;;;18.35;;
49890;SDS011;35780;55.568;37.492;2023-07-08T03:39:31;24.60;;;18.40;;
49890;SDS011;35780;55.568;37.492;2023-07-08T03:41:57;22.75;;;18.13;;
49890;SDS011;35780;55.568;37.492;2023-07-08T03:44:23;21.65;;;18.00;;
49890;SDS011;35780;55.568;37.492;2023-07-08T03:46:48;22.10;;;16.85;;
49890;SDS011;35780;55.568;37.492;2023-07-08T03:49:15;22.33;;;17.70;;
49890;SDS011;35780;55.568;37.492;2023-07-08T03:51:41;25.35;;;17.25;;
49890;SDS011;35780;55.568;37.492;2023-07-08T03:54:12;21.13;;;17.05;;
49890;SDS011;35780;55.568;37.492;2023-07-08T03:56:38;22.05;;;17.90;;
49890;SDS011;35780;55.568;37.492;2023-07-08T03:59:03;26.17;;;17.42;;
49890;SDS011;35780;55.568;37.492;2023-07-08T04:01:29;22.30;;;17.38;;
49890;SDS011;35780;55.568;37.492;2023-07-08T04:03:55;23.50;;;17.58;;
49890;SDS011;35780;55.568;37.492;2023-07-08T04:06:22;24.25;;;18.60;;
49890;SDS011;35780;55.568;37.492;2023-07-08T04:08:49;26.10;;;19.10;;
49890;SDS011;35780;55.568;37.492;2023-07-08T04:11:21;23.05;;;18.83;;
49890;SDS011;35780;55.568;37.492;2023-07-08T04:13:48;20.38;;;18.25;;
49890;SDS011;35780;55.568;37.492;2023-07-08T04:16:18;24.90;;;18.35;;
49890;SDS011;35780;55.568;37.492;2023-07-08T04:18:45;21.73;;;17.77;;
49890;SDS011;35780;55.568;37.492;2023-07-08T04:21:11;21.08;;;16.95;;
49890;SDS011;35780;55.568;37.492;2023-07-08T04:23:36;29.73;;;18.60;;
49890;SDS011;35780;55.568;37.492;2023-07-08T04:26:02;20.73;;;18.40;;
49890;SDS011;35780;55.568;37.492;2023-07-08T04:28:27;21.92;;;17.38;;
49890;SDS011;35780;55.568;37.492;2023-07-08T04:30:53;19.08;;;16.17;;
49890;SDS011;35780;55.568;37.492;2023-07-08T04:33:18;25.45;;;18.58;;
49890;SDS011;35780;55.568;37.492;2023-07-08T04:35:44;22.77;;;19.08;;
49890;SDS011;35780;55.568;37.492;2023-07-08T04:38:16;21.73;;;17.00;;
49890;SDS011;35780;55.568;37.492;2023-07-08T04:40:44;25.38;;;18.30;;
49890;SDS011;35780;55.568;37.492;2023-07-08T04:43:10;24.90;;;18.63;;
49890;SDS011;35780;55.568;37.492;2023-07-08T04:45:39;19.55;;;17.27;;
49890;SDS011;35780;55.568;37.492;2023-07-08T04:48:07;25.40;;;17.48;;
49890;SDS011;35780;55.568;37.492;2023-07-08T04:50:39;31.95;;;17.38;;
49890;SDS011;35780;55.568;37.492;2023-07-08T04:53:06;22.58;;;15.70;;
49890;SDS011;35780;55.568;37.492;2023-07-08T04:55:31;24.50;;;16.08;;
49890;SDS011;35780;55.568;37.492;2023-07-08T04:57:57;21.58;;;15.82;;
49890;SDS011;35780;55.568;37.492;2023-07-08T05:00:22;19.38;;;15.70;;
49890;SDS011;35780;55.568;37.492;2023-07-08T05:02:48;19.63;;;14.80;;
49890;SDS011;35780;55.568;37.492;2023-07-08T05:05:14;21.48;;;14.35;;
49890;SDS011;35780;55.568;37.492;2023-07-08T05:07:39;17.63;;;14.05;;
49890;SDS011;35780;55.568;37.492;2023-07-08T05:10:05;21.30;;;14.65;;
49890;SDS011;35780;55.568;37.492;2023-07-08T05:12:31;23.63;;;14.18;;
49890;SDS011;35780;55.568;37.492;2023-07-08T05:14:56;22.35;;;14.32;;
49890;SDS011;35780;55.568;37.492;2023-07-08T05:17:22;20.75;;;13.13;;
49890;SDS011;35780;55.568;37.492;2023-07-08T05:19:50;18.35;;;13.68;;
49890;SDS011;35780;55.568;37.492;2023-07-08T05:22:16;18.15;;;13.20;;
49890;SDS011;35780;55.568;37.492;2023-07-08T05:24:43;17.38;;;13.73;;
49890;SDS011;35780;55.568;37.492;2023-07-08T05:27:08;21.27;;;13.30;;
49890;SDS011;35780;55.568;37.492;2023-07-08T05:29:34;25.25;;;14.70;;
49890;SDS011;35780;55.568;37.492;2023-07-08T05:32:01;18.58;;;15.15;;
49890;SDS011;35780;55.568;37.492;2023-07-08T05:34:26;17.42;;;14.07;;
49890;SDS011;35780;55.568;37.492;2023-07-08T05:36:52;16.05;;;13.50;;
49890;SDS011;35780;55.568;37.492;2023-07-08T05:39:17;16.70;;;13.52;;
49890;SDS011;35780;55.568;37.492;2023-07-08T05:41:43;22.23;;;14.20;;
49890;SDS011;35780;55.568;37.492;2023-07-08T05:44:08;19.55;;;13.80;;
49890;SDS011;35780;55.568;37.492;2023-07-08T05:46:34;19.75;;;14.05;;
49890;SDS011;35780;55.568;37.492;2023-07-08T05:48:59;18.63;;;13.73;;
49890;SDS011;35780;55.568;37.492;2023-07-08T05:51:25;14.45;;;12.95;;
49890;SDS011;35780;55.568;37.492;2023-07-08T05:53:50;16.75;;;12.93;;
49890;SDS011;35780;55.568;37.492;2023-07-08T05:56:16;20.83;;;13.35;;
49890;SDS011;35780;55.568;37.492;2023-07-08T05:58:41;17.42;;;13.05;;
49890;SDS011;35780;55.568;37.492;2023-07-08T06:01:07;15.55;;;13.38;;
49890;SDS011;35780;55.568;37.492;2023-07-08T06:03:32;19.15;;;14.05;;
49890;SDS011;35780;55.568;37.492;2023-07-08T06:05:58;19.88;;;13.32;;
49890;SDS011;35780;55.568;37.492;2023-07-08T06:08:23;16.30;;;13.88;;
49890;SDS011;35780;55.568;37.492;2023-07-08T06:10:49;18.48;;;14.30;;
49890;SDS011;35780;55.568;37.492;2023-07-08T06:13:15;18.25;;;13.40;;
49890;SDS011;35780;55.568;37.492;2023-07-08T06:15:41;24.42;;;13.70;;
49890;SDS011;35780;55.568;37.492;2023-07-08T06:18:07;21.35;;;12.93;;
49890;SDS011;35780;55.568;37.492;2023-07-08T06:20:32;20.83;;;14.73;;
49890;SDS011;35780;55.568;37.492;2023-07-08T06:22:58;16.85;;;13.60;;
49890;SDS011;35780;55.568;37.492;2023-07-08T06:25:23;19.95;;;13.75;;
49890;SDS011;35780;55.568;37.492;2023-07-08T06:27:49;22.10;;;15.02;;
49890;SDS011;35780;55.568;37.492;2023-07-08T06:30:15;20.10;;;14.52;;
49890;SDS011;35780;55.568;37.492;2023-07-08T06:32:40;16.90;;;13.32;;
49890;SDS011;35780;55.568;37.492;2023-07-08T06:35:07;19.90;;;12.82;;
49890;SDS011;35780;55.568;37.492;2023-07-08T06:37:33;22.58;;;13.77;;
49890;SDS011;35780;55.568;37.492;2023-07-08T06:39:58;16.60;;;13.13;;
49890;SDS011;35780;55.568;37.492;2023-07-08T06:42:24;15.65;;;12.40;;
49890;SDS011;35780;55.568;37.492;2023-07-08T06:44:49;15.95;;;12.07;;
49890;SDS011;35780;55.568;37.492;2023-07-08T06:47:17;18.08;;;12.02;;
49890;SDS011;35780;55.568;37.492;2023-07-08T06:49:43;19.80;;;11.95;;
49890;SDS011;35780;55.568;37.492;2023-07-08T06:52:08;15.00;;;12.20;;
49890;SDS011;35780;55.568;37.492;2023-07-08T06:54:34;20.83;;;11.50;;
49890;SDS011;35780;55.568;37.492;2023-07-08T06:56:59;18.33;;;11.48;;
49890;SDS011;35780;55.568;37.492;2023-07-08T06:59:25;20.63;;;13.88;;
49890;SDS011;35780;55.568;37.492;2023-07-08T07:01:50;15.98;;;11.77;;
49890;SDS011;35780;55.568;37.492;2023-07-08T07:04:16;21.55;;;12.02;;
49890;SDS011;35780;55.568;37.492;2023-07-08T07:06:41;16.77;;;11.50;;
49890;SDS011;35780;55.568;37.492;2023-07-08T07:09:07;16.17;;;11.02;;
49890;SDS011;35780;55.568;37.492;2023-07-08T07:11:32;15.10;;;11.13;;
49890;SDS011;35780;55.568;37.492;2023-07-08T07:13:58;15.55;;;11.57;;
49890;SDS011;35780;55.568;37.492;2023-07-08T07:16:23;21.17;;;12.48;;
49890;SDS011;35780;55.568;37.492;2023-07-08T07:18:49;20.23;;;11.52;;
49890;SDS011;35780;55.568;37.492;2023-07-08T07:21:16;18.88;;;11.65;;
49890;SDS011;35780;55.568;37.492;2023-07-08T07:23:42;21.02;;;13.05;;
49890;SDS011;35780;55.568;37.492;2023-07-08T07:26:08;19.65;;;12.50;;
49890;SDS011;35780;55.568;37.492;2023-07-08T07:28:33;24.88;;;13.10;;
49890;SDS011;35780;55.568;37.492;2023-07-08T07:30:59;16.55;;;11.23;;
49890;SDS011;35780;55.568;37.492;2023-07-08T07:33:25;13.05;;;11.15;;
49890;SDS011;35780;55.568;37.492;2023-07-08T07:35:51;15.07;;;10.57;;
49890;SDS011;35780;55.568;37.492;2023-07-08T07:38:16;18.98;;;12.68;;
49890;SDS011;35780;55.568;37.492;2023-07-08T07:40:42;17.63;;;12.13;;
49890;SDS011;35780;55.568;37.492;2023-07-08T07:43:08;16.88;;;11.82;;
49890;SDS011;35780;55.568;37.492;2023-07-08T07:45:34;14.65;;;11.27;;
49890;SDS011;35780;55.568;37.492;2023-07-08T07:47:59;23.52;;;10.63;;
49890;SDS011;35780;55.568;37.492;2023-07-08T07:50:25;17.25;;;11.30;;
49890;SDS011;35780;55.568;37.492;2023-07-08T07:52:51;16.05;;;10.55;;
49890;SDS011;35780;55.568;37.492;2023-07-08T07:55:18;16.02;;;10.32;;
49890;SDS011;35780;55.568;37.492;2023-07-08T07:57:44;13.00;;;9.82;;
49890;SDS011;35780;55.568;37.492;2023-07-08T08:00:13;12.50;;;9.88;;
49890;SDS011;35780;55.568;37.492;2023-07-08T08:02:42;13.95;;;9.48;;
49890;SDS011;35780;55.568;37.492;2023-07-08T08:05:08;11.05;;;9.85;;
49890;SDS011;35780;55.568;37.492;2023-07-08T08:07:33;12.27;;;10.50;;
49890;SDS011;35780;55.568;37.492;2023-07-08T08:09:59;12.18;;;9.23;;
49890;SDS011;35780;55.568;37.492;2023-07-08T08:12:24;21.73;;;11.27;;
49890;SDS011;35780;55.568;37.492;2023-07-08T08:14:50;13.93;;;9.73;;
49890;SDS011;35780;55.568;37.492;2023-07-08T08:17:16;18.27;;;9.82;;
49890;SDS011;35780;55.568;37.492;2023-07-08T08:19:42;17.45;;;11.48;;
49890;SDS011;35780;55.568;37.492;2023-07-08T08:22:07;17.63;;;11.05;;
49890;SDS011;35780;55.568;37.492;2023-07-08T08:24:33;13.77;;;10.50;;
49890;SDS011;35780;55.568;37.492;2023-07-08T08:26:59;14.48;;;10.23;;
49890;SDS011;35780;55.568;37.492;2023-07-08T08:29:24;18.20;;;10.57;;
49890;SDS011;35780;55.568;37.492;2023-07-08T08:31:50;17.10;;;10.32;;
49890;SDS011;35780;55.568;37.492;2023-07-08T08:34:16;17.27;;;10.90;;
49890;SDS011;35780;55.568;37.492;2023-07-08T08:36:41;16.83;;;10.43;;
49890;SDS011;35780;55.568;37.492;2023-07-08T08:39:08;16.13;;;10.25;;
49890;SDS011;35780;55.568;37.492;2023-07-08T08:41:34;15.73;;;10.55;;
49890;SDS011;35780;55.568;37.492;2023-07-08T08:44:03;12.00;;;9.75;;
49890;SDS011;35780;55.568;37.492;2023-07-08T08:51:41;15.68;;;10.07;;
49890;SDS011;35780;55.568;37.492;2023-07-08T08:54:07;15.00;;;10.50;;
49890;SDS011;35780;55.568;37.492;2023-07-08T08:56:52;19.40;;;10.57;;
49890;SDS011;35780;55.568;37.492;2023-07-08T09:04:54;20.42;;;10.57;;
49890;SDS011;35780;55.568;37.492;2023-07-08T09:07:23;16.70;;;9.82;;
49890;SDS011;35780;55.568;37.492;2023-07-08T09:12:26;16.58;;;9.75;;
49890;SDS011;35780;55.568;37.492;2023-07-08T09:14:52;14.20;;;10.63;;
49890;SDS011;35780;55.568;37.492;2023-07-08T09:17:28;17.58;;;10.48;;
49890;SDS011;35780;55.568;37.492;2023-07-08T09:19:59;15.77;;;10.30;;
49890;SDS011;35780;55.568;37.492;2023-07-08T09:25:48;11.80;;;9.32;;
49890;SDS011;35780;55.568;37.492;2023-07-08T09:28:16;16.85;;;10.02;;
49890;SDS011;35780;55.568;37.492;2023-07-08T09:30:41;17.88;;;10.02;;
49890;SDS011;35780;55.568;37.492;2023-07-08T09:33:10;13.45;;;10.02;;
49890;SDS011;35780;55.568;37.492;2023-07-08T09:35:43;11.85;;;8.93;;
49890;SDS011;35780;55.568;37.492;2023-07-08T09:38:16;14.45;;;9.55;;
49890;SDS011;35780;55.568;37.492;2023-07-08T09:40:52;14.05;;;9.32;;
49890;SDS011;35780;55.568;37.492;2023-07-08T09:45:52;15.18;;;8.80;;
49890;SDS011;35780;55.568;37.492;2023-07-08T09:48:26;12.73;;;8.60;;
49890;SDS011;35780;55.568;37.492;2023-07-08T09:50:54;17.10;;;9.47;;
49890;SDS011;35780;55.568;37.492;2023-07-08T09:53:21;16.10;;;9.32;;
49890;SDS011;35780;55.568;37.492;2023-07-08T09:55:47;14.40;;;9.43;;
49890;SDS011;35780;55.568;37.492;2023-07-08T09:58:19;13.70;;;7.63;;
49890;SDS011;35780;55.568;37.492;2023-07-08T10:00:51;16.20;;;9.50;;
49890;SDS011;35780;55.568;37.492;2023-07-08T10:03:20;13.50;;;8.07;;
49890;SDS011;35780;55.568;37.492;2023-07-08T10:05:48;14.02;;;7.85;;
49890;SDS011;35780;55.568;37.492;2023-07-08T10:08:15;9.95;;;7.63;;
49890;SDS011;35780;55.568;37.492;2023-07-08T10:10:46;14.35;;;7.40;;
49890;SDS011;35780;55.568;37.492;2023-07-08T10:13:24;12.05;;;8.18;;
49890;SDS011;35780;55.568;37.492;2023-07-08T10:16:00;10.15;;;7.50;;
49890;SDS011;35780;55.568;37.492;2023-07-08T10:18:46;11.98;;;7.70;;
49890;SDS011;35780;55.568;37.492;2023-07-08T10:21:13;11.15;;;7.90;;
49890;SDS011;35780;55.568;37.492;2023-07-08T10:26:26;13.80;;;8.23;;
49890;SDS011;35780;55.568;37.492;2023-07-08T10:34:52;14.95;;;8.27;;
49890;SDS011;35780;55.568;37.492;2023-07-08T10:56:40;9.13;;;6.47;;
49890;SDS011;35780;55.568;37.492;2023-07-08T11:04:47;14.23;;;5.80;;
49890;SDS011;35780;55.568;37.492;2023-07-08T11:07:27;8.90;;;5.70;;
49890;SDS011;35780;55.568;37.492;2023-07-08T11:10:00;8.93;;;5.40;;
49890;SDS011;35780;55.568;37.492;2023-07-08T11:12:41;11.23;;;5.90;;
49890;SDS011;35780;55.568;37.492;2023-07-08T11:15:18;6.53;;;5.43;;
49890;SDS011;35780;55.568;37.492;2023-07-08T11:17:56;7.70;;;5.60;;
49890;SDS011;35780;55.568;37.492;2023-07-08T11:20:55;6.80;;;5.07;;
49890;SDS011;35780;55.568;37.492;2023-07-08T11:26:09;14.55;;;5.82;;
49890;SDS011;35780;55.568;37.492;2023-07-08T11:28:43;11.75;;;5.15;;
49890;SDS011;35780;55.568;37.492;2023-07-08T11:31:09;8.30;;;4.65;;
49890;SDS011;35780;55.568;37.492;2023-07-08T11:33:35;7.65;;;4.55;;
49890;SDS011;35780;55.568;37.492;2023-07-08T11:36:01;10.70;;;5.03;;
49890;SDS011;35780;55.568;37.492;2023-07-08T11:38:28;9.57;;;5.43;;
49890;SDS011;35780;55.568;37.492;2023-07-08T11:40:55;15.88;;;5.40;;
49890;SDS011;35780;55.568;37.492;2023-07-08T11:43:21;9.30;;;5.60;;
49890;SDS011;35780;55.568;37.492;2023-07-08T11:45:49;11.45;;;5.15;;
49890;SDS011;35780;55.568;37.492;2023-07-08T11:48:19;8.57;;;5.03;;
49890;SDS011;35780;55.568;37.492;2023-07-08T11:50:48;6.32;;;4.55;;
49890;SDS011;35780;55.568;37.492;2023-07-08T12:08:57;11.68;;;4.60;;
49890;SDS011;35780;55.568;37.492;2023-07-08T12:11:27;10.07;;;4.90;;
49890;SDS011;35780;55.568;37.492;2023-07-08T12:14:00;8.30;;;4.55;;
49890;SDS011;35780;55.568;37.492;2023-07-08T12:16:27;9.73;;;4.77;;
49890;SDS011;35780;55.568;37.492;2023-07-08T12:18:54;6.88;;;4.53;;
49890;SDS011;35780;55.568;37.492;2023-07-08T12:21:22;8.02;;;4.68;;
49890;SDS011;35780;55.568;37.492;2023-07-08T12:23:48;9.95;;;4.88;;
49890;SDS011;35780;55.568;37.492;2023-07-08T12:26:14;6.20;;;4.60;;
49890;SDS011;35780;55.568;37.492;2023-07-08T12:28:40;11.35;;;4.63;;
49890;SDS011;35780;55.568;37.492;2023-07-08T12:31:16;9.90;;;4.30;;
49890;SDS011;35780;55.568;37.492;2023-07-08T12:33:43;10.95;;;4.78;;
49890;SDS011;35780;55.568;37.492;2023-07-08T12:36:10;9.50;;;4.60;;
49890;SDS011;35780;55.568;37.492;2023-07-08T12:38:38;5.45;;;3.65;;
49890;SDS011;35780;55.568;37.492;2023-07-08T12:41:11;9.70;;;4.25;;
49890;SDS011;35780;55.568;37.492;2023-07-08T12:43:41;5.90;;;4.05;;
49890;SDS011;35780;55.568;37.492;2023-07-08T12:46:08;8.43;;;3.53;;
49890;SDS011;35780;55.568;37.492;2023-07-08T12:48:35;5.93;;;3.65;;
49890;SDS011;35780;55.568;37.492;2023-07-08T12:51:02;6.40;;;3.22;;
49890;SDS011;35780;55.568;37.492;2023-07-08T12:53:28;9.00;;;3.15;;
49890;SDS011;35780;55.568;37.492;2023-07-08T12:55:55;6.90;;;3.63;;
49890;SDS011;35780;55.568;37.492;2023-07-08T12:58:27;5.88;;;3.28;;
49890;SDS011;35780;55.568;37.492;2023-07-08T13:00:53;8.90;;;3.78;;
49890;SDS011;35780;55.568;37.492;2023-07-08T13:03:24;9.02;;;3.88;;
49890;SDS011;35780;55.568;37.492;2023-07-08T13:05:52;5.85;;;3.97;;
49890;SDS011;35780;55.568;37.492;2023-07-08T13:08:20;8.13;;;4.40;;
49890;SDS011;35780;55.568;37.492;2023-07-08T13:10:46;6.78;;;3.88;;
49890;SDS011;35780;55.568;37.492;2023-07-08T13:13:15;7.50;;;4.35;;
49890;SDS011;35780;55.568;37.492;2023-07-08T13:15:44;6.57;;;3.85;;
49890;SDS011;35780;55.568;37.492;2023-07-08T13:18:43;8.95;;;3.40;;
49890;SDS011;35780;55.568;37.492;2023-07-08T13:21:03;5.80;;;3.97;;
49890;SDS011;35780;55.568;37.492;2023-07-08T13:23:30;8.32;;;3.97;;
49890;SDS011;35780;55.568;37.492;2023-07-08T13:25:57;8.23;;;4.45;;
49890;SDS011;35780;55.568;37.492;2023-07-08T13:28:26;5.28;;;3.95;;
49890;SDS011;35780;55.568;37.492;2023-07-08T13:31:02;7.25;;;3.90;;
49890;SDS011;35780;55.568;37.492;2023-07-08T13:33:32;8.25;;;4.00;;
49890;SDS011;35780;55.568;37.492;2023-07-08T13:36:01;9.52;;;4.95;;
49890;SDS011;35780;55.568;37.492;2023-07-08T13:38:32;10.40;;;4.57;;
49890;SDS011;35780;55.568;37.492;2023-07-08T13:43:30;5.57;;;4.00;;
49890;SDS011;35780;55.568;37.492;2023-07-08T13:45:57;6.03;;;4.30;;
49890;SDS011;35780;55.568;37.492;2023-07-08T13:51:01;9.13;;;4.60;;
49890;SDS011;35780;55.568;37.492;2023-07-08T13:58:41;7.68;;;4.00;;
49890;SDS011;35780;55.568;37.492;2023-07-08T14:01:19;11.05;;;3.90;;
49890;SDS011;35780;55.568;37.492;2023-07-08T14:03:47;12.45;;;4.25;;
49890;SDS011;35780;55.568;37.492;2023-07-08T14:06:14;7.47;;;4.03;;
49890;SDS011;35780;55.568;37.492;2023-07-08T14:08:44;15.83;;;4.67;;
49890;SDS011;35780;55.568;37.492;2023-07-08T14:11:10;11.88;;;4.40;;
49890;SDS011;35780;55.568;37.492;2023-07-08T14:13:35;7.72;;;4.70;;
49890;SDS011;35780;55.568;37.492;2023-07-08T14:16:01;8.65;;;4.22;;
49890;SDS011;35780;55.568;37.492;2023-07-08T14:18:30;9.77;;;4.47;;
49890;SDS011;35780;55.568;37.492;2023-07-08T14:20:56;11.88;;;4.38;;
49890;SDS011;35780;55.568;37.492;2023-07-08T14:23:23;14.13;;;4.72;;
49890;SDS011;35780;55.568;37.492;2023-07-08T14:25:49;11.77;;;4.50;;
49890;SDS011;35780;55.568;37.492;2023-07-08T14:28:14;9.82;;;4.20;;
49890;SDS011;35780;55.568;37.492;2023-07-08T14:30:44;8.35;;;4.03;;
49890;SDS011;35780;55.568;37.492;2023-07-08T14:33:11;8.85;;;4.10;;
49890;SDS011;35780;55.568;37.492;2023-07-08T14:35:37;10.18;;;4.28;;
49890;SDS011;35780;55.568;37.492;2023-07-08T14:38:08;11.93;;;4.95;;
49890;SDS011;35780;55.568;37.492;2023-07-08T14:40:36;12.80;;;4.63;;
49890;SDS011;35780;55.568;37.492;2023-07-08T14:43:06;7.38;;;4.28;;
49890;SDS011;35780;55.568;37.492;2023-07-08T14:45:40;14.10;;;4.20;;
49890;SDS011;35780;55.568;37.492;2023-07-08T14:48:09;9.77;;;4.53;;
49890;SDS011;35780;55.568;37.492;2023-07-08T14:50:35;9.65;;;4.10;;
49890;SDS011;35780;55.568;37.492;2023-07-08T14:53:01;7.63;;;4.10;;
49890;SDS011;35780;55.568;37.492;2023-07-08T14:55:26;8.75;;;4.00;;
49890;SDS011;35780;55.568;37.492;2023-07-08T14:57:52;12.32;;;4.47;;
49890;SDS011;35780;55.568;37.492;2023-07-08T15:00:18;8.07;;;4.50;;
49890;SDS011;35780;55.568;37.492;2023-07-08T15:02:44;13.32;;;3.97;;
49890;SDS011;35780;55.568;37.492;2023-07-08T15:05:15;14.18;;;4.13;;
49890;SDS011;35780;55.568;37.492;2023-07-08T15:07:59;7.88;;;4.28;;
49890;SDS011;35780;55.568;37.492;2023-07-08T15:10:25;11.35;;;4.05;;
49890;SDS011;35780;55.568;37.492;2023-07-08T15:12:52;10.30;;;3.80;;
49890;SDS011;35780;55.568;37.492;2023-07-08T15:15:26;9.88;;;3.90;;
49890;SDS011;35780;55.568;37.492;2023-07-08T15:17:53;13.63;;;4.20;;
49890;SDS011;35780;55.568;37.492;2023-07-08T15:20:19;13.95;;;3.80;;
49890;SDS011;35780;55.568;37.492;2023-07-08T15:22:46;7.50;;;3.20;;
49890;SDS011;35780;55.568;37.492;2023-07-08T15:25:12;10.45;;;3.60;;
49890;SDS011;35780;55.568;37.492;2023-07-08T15:27:57;6.55;;;3.47;;
49890;SDS011;35780;55.568;37.492;2023-07-08T15:30:24;8.38;;;3.35;;
49890;SDS011;35780;55.568;37.492;2023-07-08T15:32:51;14.82;;;4.50;;
49890;SDS011;35780;55.568;37.492;2023-07-08T15:35:18;14.48;;;3.67;;
49890;SDS011;35780;55.568;37.492;2023-07-08T15:37:44;10.60;;;3.20;;
49890;SDS011;35780;55.568;37.492;2023-07-08T15:40:13;10.50;;;2.92;;
49890;SDS011;35780;55.568;37.492;2023-07-08T15:42:40;9.05;;;3.65;;
49890;SDS011;35780;55.568;37.492;2023-07-08T15:45:16;8.25;;;3.25;;
49890;SDS011;35780;55.568;37.492;2023-07-08T15:47:46;8.93;;;3.00;;
49890;SDS011;35780;55.568;37.492;2023-07-08T15:50:13;12.93;;;3.40;;
49890;SDS011;35780;55.568;37.492;2023-07-08T15:52:39;7.35;;;3.33;;